FNBG

Benguela Airport

Benguela, Angola
METAR FNBG 171600Z 28006KT 9999 FEW015 24/17 Q1015
Observed Flight Rules
Jul-17 @ 16:00 UTC (7 hours ago) Visual Flight Rules
Wind Visibility Clouds
280° at 6 knots 10,000+ meters
  • Few at 1,500' AGL
Temperatures Readings
Current 24°C / 75°F
Dewpoint 17°C / 63°F
Humidity 65%
Altimeter 29.97" Hg
Pressure 1015 hPa
Elevation 36
METAR FNBG 171600Z 28006KT 9999 FEW015 24/17 Q1015
Observed Flight Rules
Jul-17 @ 16:00 UTC
(7 hours ago)
VFR
Wind Visibility
280° at 6 knots 10,000+ meters
Clouds
  • Few at 1,500' AGL
Temperature Dewpoint
24°C / 75°F 17°C / 63°F
Humidity Altimeter Pressure
65% 29.97" Hg 1015 hPa